Time;durP1;ratioP1;P1;durP2;ratioP2;P2;SDS_P1;SDS_P2;PMS_P1;PMS_P2;Temp;Humidity;BMP_temperature;BMP_pressure;BME280_temperature;BME280_humidity;BME280_pressure;Samples;Min_cycle;Max_cycle;Signal;HPM_P1;HPM_P2
2022/05/15 00:02:10;;;;;;;17.77;16.60;;;21.10;54.90;;;;;;5013142;28;20049;-79
2022/05/15 00:04:36;;;;;;;17.67;16.20;;;21.00;55.20;;;;;;5008627;28;20040;-79
2022/05/15 00:07:03;;;;;;;18.23;16.95;;;21.00;55.10;;;;;;5009770;28;20041;-79
2022/05/15 00:09:29;;;;;;;17.80;16.60;;;21.00;55.10;;;;;;4989855;28;20038;-79
2022/05/15 00:11:55;;;;;;;17.85;16.65;;;20.90;55.50;;;;;;5008272;28;20045;-78
2022/05/15 00:14:22;;;;;;;17.67;16.50;;;20.80;55.70;;;;;;5008884;28;20056;-79
2022/05/15 00:16:48;;;;;;;18.20;16.80;;;20.80;55.70;;;;;;5011105;28;20042;-79
2022/05/15 00:19:14;;;;;;;17.27;16.02;;;20.80;55.60;;;;;;5008418;28;20034;-79
2022/05/15 00:21:40;;;;;;;18.08;16.98;;;20.90;55.70;;;;;;4994142;28;20502;-78
2022/05/15 00:24:06;;;;;;;18.27;16.60;;;21.00;55.40;;;;;;5007630;28;20030;-79
2022/05/15 00:26:33;;;;;;;17.17;15.98;;;20.90;55.30;;;;;;4990717;28;20678;-79
2022/05/15 00:28:59;;;;;;;17.75;16.65;;;20.80;55.80;;;;;;5009041;28;20072;-79
2022/05/15 00:31:26;;;;;;;17.27;16.25;;;20.80;55.70;;;;;;5008659;28;20030;-79
2022/05/15 00:33:52;;;;;;;17.45;16.35;;;20.80;55.60;;;;;;5010087;28;20042;-79
2022/05/15 00:36:18;;;;;;;17.38;16.33;;;20.80;55.80;;;;;;5007947;28;20061;-79
2022/05/15 00:38:44;;;;;;;17.90;16.80;;;20.70;55.80;;;;;;5007484;28;20026;-79
2022/05/15 00:41:11;;;;;;;17.52;16.42;;;20.80;55.90;;;;;;5006208;28;20038;-79
2022/05/15 00:43:51;;;;;;;17.95;16.92;;;21.00;55.40;;;;;;5008204;28;20030;-79
2022/05/15 00:46:28;;;;;;;17.58;16.35;;;21.10;54.90;;;;;;4992697;28;20042;-79
2022/05/15 00:48:54;;;;;;;17.38;16.27;;;21.00;54.90;;;;;;4991515;28;20041;-79
2022/05/15 00:51:29;;;;;;;17.65;16.65;;;21.00;55.30;;;;;;5009626;28;20030;-79
2022/05/15 00:54:34;;;;;;;17.90;16.55;;;21.00;55.40;;;;;;5009155;28;20390;-79
2022/05/15 00:57:09;;;;;;;17.05;15.95;;;21.10;55.10;;;;;;5040169;28;20098;-79
2022/05/15 01:00:17;;;;;;;17.08;16.10;;;21.00;55.10;;;;;;5007049;28;20038;-79
2022/05/15 01:02:48;;;;;;;17.58;16.50;;;20.90;55.50;;;;;;5005933;28;20495;-79
2022/05/15 01:05:15;;;;;;;18.00;16.83;;;21.00;55.30;;;;;;5011941;28;20034;-79
2022/05/15 01:07:41;;;;;;;17.60;16.60;;;21.10;55.10;;;;;;5011947;28;20483;-79
2022/05/15 01:10:07;;;;;;;18.13;16.90;;;20.90;55.40;;;;;;5010126;28;20038;-78
2022/05/15 01:12:34;;;;;;;18.23;17.08;;;20.80;55.80;;;;;;5014024;28;20037;-79
2022/05/15 01:15:00;;;;;;;17.13;16.13;;;20.70;55.90;;;;;;5010468;28;20372;-79
2022/05/15 01:17:26;;;;;;;17.25;16.20;;;20.60;56.20;;;;;;5013090;28;20038;-79
2022/05/15 01:20:09;;;;;;;17.55;16.42;;;20.50;56.60;;;;;;5010083;28;20320;-78
2022/05/15 01:22:35;;;;;;;17.02;15.88;;;20.50;56.50;;;;;;4996953;28;20049;-79
2022/05/15 01:25:02;;;;;;;17.63;16.23;;;20.50;56.50;;;;;;5012238;28;20503;-78
2022/05/15 01:27:29;;;;;;;17.27;16.17;;;20.40;56.70;;;;;;4979090;28;20042;-79
2022/05/15 01:29:55;;;;;;;16.80;15.60;;;20.40;56.90;;;;;;5011067;28;20087;-78
2022/05/15 01:32:21;;;;;;;16.50;15.50;;;20.40;56.80;;;;;;5011717;28;20034;-79
2022/05/15 01:34:47;;;;;;;17.45;16.10;;;20.40;56.80;;;;;;5011671;28;20053;-79
2022/05/15 01:37:13;;;;;;;17.52;16.38;;;20.40;56.90;;;;;;5010327;28;20033;-78
2022/05/15 01:39:39;;;;;;;16.45;15.35;;;20.30;57.00;;;;;;5014109;28;20029;-78
2022/05/15 01:42:06;;;;;;;15.88;14.98;;;20.20;57.20;;;;;;4993579;28;20384;-78
2022/05/15 01:44:32;;;;;;;16.23;15.00;;;20.20;58.00;;;;;;5011776;28;20045;-79
2022/05/15 01:46:58;;;;;;;16.25;15.35;;;20.30;57.30;;;;;;5010204;28;20506;-79
2022/05/15 01:49:24;;;;;;;16.77;15.50;;;20.30;57.30;;;;;;5012202;28;20033;-79
2022/05/15 01:51:50;;;;;;;16.83;15.63;;;20.20;57.50;;;;;;5012357;28;20050;-79
2022/05/15 01:54:16;;;;;;;16.92;15.65;;;20.20;57.30;;;;;;5027639;28;20034;-78
2022/05/15 01:56:43;;;;;;;15.95;14.93;;;20.20;57.50;;;;;;5009440;28;20406;-79
2022/05/15 01:59:09;;;;;;;16.27;15.18;;;20.10;57.80;;;;;;5011052;28;20022;-79
2022/05/15 02:01:35;;;;;;;16.65;15.30;;;20.10;57.60;;;;;;5009489;28;20042;-79
2022/05/15 02:04:01;;;;;;;16.10;15.10;;;20.20;57.80;;;;;;5007547;28;20571;-79
2022/05/15 02:06:28;;;;;;;16.90;15.70;;;20.20;57.40;;;;;;4994963;28;20131;-79
2022/05/15 02:08:55;;;;;;;16.58;15.48;;;20.20;57.30;;;;;;5003153;28;20033;-79
2022/05/15 02:11:21;;;;;;;16.27;15.27;;;20.10;57.40;;;;;;5002304;28;20029;-79
2022/05/15 02:13:47;;;;;;;15.98;15.07;;;20.20;57.50;;;;;;5034058;28;20501;-79
2022/05/15 02:16:13;;;;;;;16.33;15.30;;;20.10;57.50;;;;;;4993014;28;20045;-79
2022/05/15 02:18:39;;;;;;;16.73;15.63;;;20.30;57.50;;;;;;5017041;28;20368;-79
2022/05/15 02:21:05;;;;;;;16.25;14.85;;;20.30;56.90;;;;;;5006781;28;20030;-79
2022/05/15 02:23:31;;;;;;;15.95;14.95;;;20.20;57.30;;;;;;5014093;28;20368;-79
2022/05/15 02:25:57;;;;;;;16.02;14.93;;;20.10;57.50;;;;;;5009745;28;20033;-79
2022/05/15 02:28:24;;;;;;;17.13;15.82;;;20.30;57.30;;;;;;4993889;28;20037;-79
2022/05/15 02:30:50;;;;;;;16.23;15.32;;;20.40;56.90;;;;;;5031592;28;20390;-79
2022/05/15 02:33:16;;;;;;;16.58;15.20;;;20.20;57.20;;;;;;5017245;28;20025;-79
2022/05/15 02:35:42;;;;;;;16.48;15.40;;;20.10;57.60;;;;;;5016116;28;20101;-79
2022/05/15 02:38:09;;;;;;;16.50;15.50;;;20.00;57.90;;;;;;5003420;28;20027;-79
2022/05/15 02:40:35;;;;;;;16.58;15.60;;;19.90;58.20;;;;;;5011249;28;20509;-79
2022/05/15 02:43:01;;;;;;;16.65;15.43;;;20.00;58.10;;;;;;5010164;28;20029;-78
2022/05/15 02:45:27;;;;;;;16.60;15.43;;;20.00;58.10;;;;;;5011682;28;20388;-79
2022/05/15 02:47:53;;;;;;;17.83;16.50;;;20.00;58.00;;;;;;5010117;28;20030;-79
2022/05/15 02:53:05;;;;;;;17.55;16.10;;;20.00;57.60;;;;;;5010175;28;20056;-77
2022/05/15 02:55:31;;;;;;;16.98;15.90;;;20.00;57.80;;;;;;4994187;28;20399;-77
2022/05/15 02:57:57;;;;;;;16.10;15.20;;;19.80;58.00;;;;;;5011340;28;20037;-75
2022/05/15 03:00:24;;;;;;;16.00;15.00;;;19.70;58.30;;;;;;5012632;28;20038;-74
2022/05/15 03:02:50;;;;;;;15.82;14.93;;;19.70;58.30;;;;;;5042122;28;20034;-74
2022/05/15 03:05:17;;;;;;;15.90;15.00;;;19.70;59.00;;;;;;5025891;28;20034;-74
2022/05/15 03:07:43;;;;;;;15.80;14.80;;;19.60;58.60;;;;;;5010928;28;20057;-75
2022/05/15 03:10:11;;;;;;;15.75;14.93;;;19.60;58.70;;;;;;5010376;28;20035;-74
2022/05/15 03:12:37;;;;;;;15.20;14.30;;;19.50;58.80;;;;;;5013129;28;20025;-74
2022/05/15 03:15:05;;;;;;;15.57;14.57;;;19.50;58.70;;;;;;4992708;28;20049;-74
2022/05/15 03:17:32;;;;;;;16.23;15.15;;;19.50;59.00;;;;;;4992267;28;20029;-75
2022/05/15 03:19:58;;;;;;;14.95;13.95;;;19.40;59.40;;;;;;5008910;28;20037;-74
2022/05/15 03:22:25;;;;;;;15.20;14.10;;;19.30;59.60;;;;;;5009593;28;20113;-73
2022/05/15 03:24:51;;;;;;;15.18;13.73;;;19.30;59.60;;;;;;5011498;28;20411;-75
2022/05/15 03:27:17;;;;;;;15.30;14.00;;;19.30;59.60;;;;;;5007733;28;20041;-73
2022/05/15 03:29:43;;;;;;;14.85;13.95;;;19.30;59.60;;;;;;5009632;28;20038;-73
2022/05/15 03:32:09;;;;;;;15.43;14.20;;;19.20;59.80;;;;;;5018815;28;20037;-74
2022/05/15 03:34:35;;;;;;;16.00;15.00;;;19.10;60.00;;;;;;5011364;28;20030;-76
2022/05/15 03:37:01;;;;;;;16.23;14.65;;;19.10;60.10;;;;;;5043052;28;20525;-76
2022/05/15 03:39:27;;;;;;;15.13;14.13;;;19.00;60.60;;;;;;4992326;28;20029;-76
2022/05/15 03:41:53;;;;;;;15.90;14.85;;;19.00;60.80;;;;;;5011302;28;20046;-76
2022/05/15 03:44:19;;;;;;;15.30;13.90;;;19.10;60.70;;;;;;5008349;28;20040;-78
2022/05/15 03:46:46;;;;;;;14.63;13.70;;;19.00;60.60;;;;;;4990332;28;20038;-75
2022/05/15 03:49:13;;;;;;;14.68;13.48;;;19.00;60.90;;;;;;5009306;28;20033;-75
2022/05/15 03:51:40;;;;;;;14.45;13.48;;;19.00;61.10;;;;;;4992169;28;20060;-75
2022/05/15 03:54:07;;;;;;;14.65;13.57;;;19.00;61.10;;;;;;5008178;28;20037;-75
2022/05/15 03:56:51;;;;;;;14.13;13.20;;;19.00;61.20;;;;;;4989699;28;20046;-77
2022/05/15 03:59:25;;;;;;;14.13;13.05;;;18.90;61.30;;;;;;5008513;28;20081;-75
2022/05/15 04:01:51;;;;;;;13.32;12.52;;;18.80;61.60;;;;;;5006664;28;20049;-75
2022/05/15 04:04:18;;;;;;;13.77;12.88;;;18.80;61.70;;;;;;4995332;28;20060;-75
2022/05/15 04:06:44;;;;;;;13.57;12.77;;;18.80;61.70;;;;;;5011363;28;20033;-75
2022/05/15 04:09:10;;;;;;;13.90;12.75;;;18.70;61.80;;;;;;5010525;28;20026;-75
2022/05/15 04:11:36;;;;;;;13.43;12.52;;;18.90;62.20;;;;;;5010388;28;20041;-75
2022/05/15 04:14:03;;;;;;;13.32;12.52;;;18.80;61.90;;;;;;5010164;28;20029;-75
2022/05/15 04:16:29;;;;;;;14.27;13.27;;;18.80;61.70;;;;;;5007523;28;20042;-75
2022/05/15 04:18:55;;;;;;;13.35;12.48;;;18.80;61.70;;;;;;5043788;28;20450;-76
2022/05/15 04:21:21;;;;;;;15.18;13.73;;;18.80;62.10;;;;;;5009864;28;20050;-75
2022/05/15 04:23:48;;;;;;;13.85;13.05;;;18.80;62.00;;;;;;5007254;28;20531;-76
2022/05/15 04:26:14;;;;;;;13.75;12.95;;;18.80;61.80;;;;;;5009341;28;20045;-75
2022/05/15 04:28:41;;;;;;;13.65;12.70;;;18.80;61.80;;;;;;5007770;28;20384;-75
2022/05/15 04:31:07;;;;;;;13.80;12.60;;;18.70;62.10;;;;;;5025383;28;20030;-76
2022/05/15 04:33:34;;;;;;;13.90;12.80;;;18.70;62.30;;;;;;4976913;28;20404;-75
2022/05/15 04:36:00;;;;;;;13.30;12.35;;;18.70;62.50;;;;;;5041988;28;20033;-75
2022/05/15 04:38:27;;;;;;;13.43;12.52;;;18.60;62.70;;;;;;5006888;28;20041;-76
2022/05/15 04:40:53;;;;;;;13.05;12.18;;;18.70;62.60;;;;;;5007913;28;20394;-75
2022/05/15 04:43:19;;;;;;;12.82;11.93;;;18.70;62.90;;;;;;5042242;28;20395;-75
2022/05/15 04:45:45;;;;;;;13.32;12.45;;;18.70;62.90;;;;;;5010384;28;20038;-75
2022/05/15 04:48:11;;;;;;;13.50;12.60;;;18.60;63.00;;;;;;4980622;28;20502;-75
2022/05/15 04:50:38;;;;;;;12.65;11.85;;;18.60;63.30;;;;;;5005408;28;20034;-76
2022/05/15 04:53:04;;;;;;;13.23;12.02;;;18.60;63.40;;;;;;5006705;28;20042;-75
2022/05/15 04:55:31;;;;;;;13.63;12.63;;;18.60;63.30;;;;;;5009070;28;20041;-75
2022/05/15 04:57:57;;;;;;;12.68;11.70;;;18.60;63.20;;;;;;5025732;28;20030;-75
2022/05/15 05:00:23;;;;;;;13.13;12.13;;;18.50;63.40;;;;;;5004076;28;20038;-75
2022/05/15 05:02:49;;;;;;;13.57;12.40;;;18.60;63.10;;;;;;4996262;28;20395;-75
2022/05/15 05:05:15;;;;;;;13.30;12.40;;;18.70;63.10;;;;;;5003574;28;20018;-76
2022/05/15 05:07:42;;;;;;;13.40;12.40;;;18.70;62.90;;;;;;5009197;28;20041;-76
2022/05/15 05:10:09;;;;;;;12.93;12.02;;;18.80;63.10;;;;;;5025351;28;20030;-75
2022/05/15 05:12:36;;;;;;;12.65;11.70;;;18.80;63.30;;;;;;4992586;28;20034;-75
2022/05/15 05:15:06;;;;;;;13.15;12.35;;;18.70;64.50;;;;;;4988432;28;20062;-76
2022/05/15 05:17:32;;;;;;;12.80;12.02;;;18.70;63.70;;;;;;5016780;28;20046;-75
2022/05/15 05:19:58;;;;;;;13.27;12.18;;;18.80;63.90;;;;;;5040867;28;20030;-76
2022/05/15 05:22:24;;;;;;;13.20;12.20;;;18.90;63.70;;;;;;5006684;28;20047;-76
2022/05/15 05:24:50;;;;;;;13.02;12.13;;;18.90;63.50;;;;;;5026833;28;20037;-76
2022/05/15 05:27:17;;;;;;;13.00;12.10;;;18.90;63.70;;;;;;5023644;28;20034;-75
2022/05/15 05:29:43;;;;;;;12.90;11.98;;;18.80;63.80;;;;;;5007165;28;20030;-75
2022/05/15 05:32:09;;;;;;;13.57;12.65;;;19.00;63.70;;;;;;5024504;28;20036;-75
2022/05/15 05:34:35;;;;;;;13.43;12.63;;;19.10;63.10;;;;;;5009441;28;20030;-75
2022/05/15 05:37:01;;;;;;;13.43;12.43;;;19.00;63.60;;;;;;5005566;28;20049;-75
2022/05/15 05:39:30;;;;;;;12.70;11.77;;;19.00;63.70;;;;;;5010454;28;20034;-74
2022/05/15 05:41:57;;;;;;;13.32;12.18;;;19.00;64.00;;;;;;5006558;28;20064;-75
2022/05/15 05:44:24;;;;;;;13.02;12.02;;;18.90;64.60;;;;;;5022386;28;20068;-74
2022/05/15 05:46:50;;;;;;;12.88;11.98;;;19.00;65.10;;;;;;5007556;28;20046;-74
2022/05/15 05:49:16;;;;;;;12.50;11.50;;;18.90;66.30;;;;;;5023136;28;20025;-74
2022/05/15 05:51:43;;;;;;;12.80;11.85;;;18.80;65.80;;;;;;4995778;28;20064;-75
2022/05/15 05:54:09;;;;;;;12.60;11.80;;;18.90;66.50;;;;;;5012103;28;20022;-74
2022/05/15 05:56:35;;;;;;;11.88;11.13;;;18.90;66.30;;;;;;5012324;28;20398;-74
2022/05/15 05:59:01;;;;;;;12.25;11.35;;;19.00;66.40;;;;;;5012633;28;20387;-76
2022/05/15 06:01:27;;;;;;;12.80;11.82;;;19.00;66.60;;;;;;4993148;28;20038;-78
2022/05/15 06:06:38;;;;;;;12.38;11.57;;;19.00;66.50;;;;;;5020162;28;20037;-76
2022/05/15 06:09:04;;;;;;;12.45;11.35;;;18.90;66.90;;;;;;5045073;28;20038;-74
2022/05/15 06:11:30;;;;;;;11.57;10.73;;;18.70;67.70;;;;;;5009335;28;20032;-76
2022/05/15 06:13:56;;;;;;;11.50;10.77;;;18.50;69.00;;;;;;5011145;28;20048;-75
2022/05/15 06:16:22;;;;;;;11.40;10.40;;;18.40;69.30;;;;;;5010937;28;20029;-75
2022/05/15 06:18:48;;;;;;;10.98;10.23;;;18.20;70.20;;;;;;5014817;28;20018;-76
2022/05/15 06:21:14;;;;;;;11.27;10.43;;;18.30;70.30;;;;;;5009773;28;20049;-76
2022/05/15 06:23:40;;;;;;;10.60;9.95;;;18.30;70.90;;;;;;4994572;28;20521;-76
2022/05/15 06:26:06;;;;;;;11.10;10.40;;;18.30;71.20;;;;;;5010766;28;20030;-76
2022/05/15 06:28:34;;;;;;;11.18;10.18;;;18.40;70.90;;;;;;5010761;28;20037;-76
2022/05/15 06:31:03;;;;;;;10.85;10.07;;;18.30;71.00;;;;;;5010684;28;20038;-76
2022/05/15 06:33:29;;;;;;;10.82;10.00;;;18.30;71.20;;;;;;5010514;28;20041;-78
2022/05/15 06:35:56;;;;;;;10.73;9.95;;;18.30;71.20;;;;;;5042511;28;20034;-78
2022/05/15 06:38:22;;;;;;;12.93;10.45;;;18.30;71.50;;;;;;5010038;28;20022;-75
2022/05/15 06:40:48;;;;;;;10.88;10.10;;;18.30;70.70;;;;;;5011209;28;20037;-74
2022/05/15 06:43:14;;;;;;;10.48;9.57;;;18.30;71.90;;;;;;5011618;28;20480;-74
2022/05/15 06:45:40;;;;;;;11.00;10.10;;;18.40;71.60;;;;;;4992495;28;20034;-74
2022/05/15 06:48:07;;;;;;;11.13;10.02;;;18.40;70.50;;;;;;4997249;28;20395;-77
2022/05/15 06:50:33;;;;;;;11.27;10.27;;;18.40;71.10;;;;;;5007167;28;20022;-78
2022/05/15 06:52:59;;;;;;;10.63;9.80;;;18.40;70.40;;;;;;4991273;28;20391;-77
2022/05/15 06:55:25;;;;;;;10.85;10.15;;;18.50;71.30;;;;;;5009262;28;20055;-77
2022/05/15 06:57:51;;;;;;;10.70;9.82;;;18.70;70.70;;;;;;5044730;28;20040;-75
2022/05/15 07:00:20;;;;;;;11.15;10.30;;;18.70;70.80;;;;;;5006084;28;20033;-75
2022/05/15 07:02:46;;;;;;;11.77;10.80;;;18.80;69.60;;;;;;5024396;28;20046;-73
2022/05/15 07:05:20;;;;;;;11.18;10.45;;;18.80;69.40;;;;;;5010004;28;20065;-73
2022/05/15 07:07:46;;;;;;;10.90;10.20;;;18.70;69.50;;;;;;5008456;28;20033;-75
2022/05/15 07:10:12;;;;;;;11.50;10.05;;;18.80;69.00;;;;;;5010705;28;20034;-75
2022/05/15 07:12:38;;;;;;;10.73;9.82;;;18.80;69.00;;;;;;5010811;28;20045;-76
2022/05/15 07:15:06;;;;;;;10.75;9.95;;;18.80;69.50;;;;;;5043214;28;20380;-76
2022/05/15 07:17:32;;;;;;;10.43;9.82;;;18.70;69.50;;;;;;5009557;28;20042;-79
2022/05/15 07:19:58;;;;;;;11.27;10.38;;;18.80;69.80;;;;;;5008547;28;20414;-78
2022/05/15 07:22:24;;;;;;;11.35;10.40;;;18.80;69.30;;;;;;5009147;28;20037;-79
2022/05/15 07:24:50;;;;;;;11.40;10.40;;;18.80;70.00;;;;;;5010849;28;20034;-75
2022/05/15 07:27:17;;;;;;;11.40;10.45;;;18.80;70.20;;;;;;4990270;28;20038;-76
2022/05/15 07:29:43;;;;;;;11.63;10.80;;;18.90;70.50;;;;;;5007524;28;20042;-76
2022/05/15 07:32:09;;;;;;;10.68;9.88;;;18.90;69.30;;;;;;5009831;28;20045;-76
2022/05/15 07:34:39;;;;;;;11.65;10.60;;;19.00;69.90;;;;;;4991620;28;20042;-76
2022/05/15 07:37:05;;;;;;;12.00;10.98;;;19.20;69.30;;;;;;5018172;28;20036;-83
2022/05/15 07:39:31;;;;;;;11.65;10.65;;;19.30;69.10;;;;;;4991492;28;20050;-78
2022/05/15 07:41:57;;;;;;;12.48;11.45;;;19.40;69.00;;;;;;5007932;28;20030;-76
2022/05/15 07:44:23;;;;;;;12.10;11.20;;;19.40;68.50;;;;;;5011069;28;20492;-76
2022/05/15 07:46:49;;;;;;;11.80;10.80;;;19.40;68.60;;;;;;5008052;28;20030;-77
2022/05/15 07:49:16;;;;;;;12.00;11.15;;;19.40;68.60;;;;;;5010419;28;20375;-77
2022/05/15 07:51:44;;;;;;;11.82;10.93;;;19.50;68.70;;;;;;5012611;28;20108;-77
2022/05/15 07:54:15;;;;;;;11.57;10.80;;;19.50;68.60;;;;;;5006016;28;20041;-76
2022/05/15 07:56:42;;;;;;;12.52;11.43;;;19.60;68.60;;;;;;5005342;28;20045;-77
2022/05/15 07:59:08;;;;;;;12.85;11.63;;;19.70;68.50;;;;;;4992852;28;20038;-77
2022/05/15 08:01:35;;;;;;;12.52;11.60;;;19.80;68.40;;;;;;4992868;28;20037;-77
2022/05/15 08:04:01;;;;;;;12.75;11.85;;;19.90;68.00;;;;;;5044132;28;20402;-76
2022/05/15 08:09:11;;;;;;;12.45;11.65;;;20.10;67.30;;;;;;5010653;28;20410;-84
2022/05/15 08:11:37;;;;;;;13.45;12.60;;;20.30;66.30;;;;;;4992462;28;20041;-79
2022/05/15 08:14:05;;;;;;;13.55;12.43;;;20.40;65.50;;;;;;5007306;28;20042;-78
2022/05/15 08:16:35;;;;;;;14.00;13.10;;;20.40;65.90;;;;;;5007125;28;20046;-77
2022/05/15 08:24:36;;;;;;;14.77;13.68;;;20.90;64.80;;;;;;4996175;28;20044;-79
2022/05/15 08:27:04;;;;;;;15.90;14.95;;;21.20;64.30;;;;;;5007333;28;20038;-79
2022/05/15 08:29:30;;;;;;;17.85;16.67;;;21.50;63.30;;;;;;5007621;28;20034;-78
2022/05/15 08:31:56;;;;;;;16.55;15.45;;;21.70;62.20;;;;;;4990435;28;20041;-77
2022/05/15 08:34:22;;;;;;;15.82;14.82;;;21.80;62.40;;;;;;5006849;28;20499;-77
2022/05/15 08:36:49;;;;;;;17.40;16.17;;;22.00;62.10;;;;;;4991048;28;20034;-79
2022/05/15 08:39:15;;;;;;;18.08;16.88;;;22.30;61.70;;;;;;4990910;28;20038;-78
2022/05/15 08:41:47;;;;;;;19.38;18.13;;;22.50;60.30;;;;;;5005878;28;20034;-78
2022/05/15 08:44:21;;;;;;;21.58;20.20;;;22.80;60.80;;;;;;5008189;28;20041;-77
2022/05/15 08:47:12;;;;;;;20.70;19.60;;;23.10;59.70;;;;;;5008938;28;20022;-77
2022/05/15 08:49:45;;;;;;;21.85;20.35;;;23.40;59.10;;;;;;5002003;28;20033;-75
2022/05/15 08:52:34;;;;;;;22.27;21.00;;;23.60;58.00;;;;;;5008771;28;20062;-75
2022/05/15 08:55:09;;;;;;;23.52;22.08;;;23.80;58.30;;;;;;5007436;28;20039;-76
2022/05/15 08:57:40;;;;;;;26.15;24.45;;;23.90;57.60;;;;;;5024850;28;20037;-76
2022/05/15 09:00:10;;;;;;;24.60;23.13;;;24.20;57.70;;;;;;4991207;28;20041;-76
2022/05/15 09:02:40;;;;;;;24.17;22.67;;;24.30;57.10;;;;;;5006800;28;20050;-77
2022/05/15 09:05:07;;;;;;;26.05;24.50;;;24.40;56.40;;;;;;5009440;28;20285;-76
2022/05/15 09:07:53;;;;;;;27.75;25.98;;;24.40;56.70;;;;;;5007552;28;20412;-75
2022/05/15 09:11:00;;;;;;;28.65;26.88;;;24.70;57.00;;;;;;5008156;28;20030;-75
2022/05/15 09:13:32;;;;;;;29.55;27.67;;;25.10;56.20;;;;;;4989187;28;20038;-76
2022/05/15 09:16:00;;;;;;;31.50;29.70;;;25.30;55.30;;;;;;4984604;28;20038;-78
2022/05/15 09:18:27;;;;;;;34.42;32.53;;;25.50;55.80;;;;;;4993599;28;20053;-77
2022/05/15 09:20:53;;;;;;;30.48;28.80;;;25.80;56.00;;;;;;5007850;28;20430;-77
2022/05/15 09:23:32;;;;;;;33.17;31.35;;;25.90;54.10;;;;;;5008854;28;20479;-77
2022/05/15 09:26:17;;;;;;;33.40;31.25;;;25.90;54.20;;;;;;5009841;28;20025;-77
2022/05/15 09:28:49;;;;;;;31.15;29.45;;;26.00;54.90;;;;;;5010313;28;20033;-76
2022/05/15 09:31:23;;;;;;;30.50;28.70;;;25.90;54.30;;;;;;4992049;28;20053;-76
2022/05/15 09:34:03;;;;;;;33.63;31.67;;;25.90;54.50;;;;;;5012722;28;20030;-76
2022/05/15 09:36:33;;;;;;;35.53;32.80;;;26.10;54.70;;;;;;4986102;28;20038;-77
2022/05/15 09:39:18;;;;;;;34.45;32.50;;;26.20;54.00;;;;;;5009940;28;20385;-77
2022/05/15 09:44:41;;;;;;;35.03;33.13;;;26.80;53.70;;;;;;5009260;28;20038;-79
2022/05/15 09:47:10;;;;;;;37.17;35.08;;;26.90;52.60;;;;;;4990171;28;20041;-77
2022/05/15 09:49:36;;;;;;;527.30;275.67;;;26.90;53.20;;;;;;5010121;28;20487;-77
2022/05/15 09:52:09;;;;;;;36.95;34.95;;;27.00;52.50;;;;;;5009096;28;20049;-77
2022/05/15 09:54:37;;;;;;;1999.90;999.90;;;27.10;52.50;;;;;;4990584;28;20053;-78
2022/05/15 09:57:15;;;;;;;1999.90;999.90;;;27.40;52.00;;;;;;5007578;28;20033;-78
2022/05/15 09:59:42;;;;;;;1999.90;999.90;;;27.60;51.00;;;;;;5012839;28;20029;-76
2022/05/15 10:02:20;;;;;;;1999.90;999.90;;;27.80;51.10;;;;;;4991975;28;20388;-76
2022/05/15 10:04:49;;;;;;;1999.90;999.90;;;28.00;50.80;;;;;;5009002;28;20057;-76
2022/05/15 10:07:35;;;;;;;1999.90;999.90;;;28.20;49.80;;;;;;4994488;28;20370;-76
2022/05/15 10:10:28;;;;;;;1999.90;999.90;;;28.30;49.20;;;;;;5010228;28;20022;-76
2022/05/15 10:13:24;;;;;;;1999.90;999.90;;;28.60;48.40;;;;;;5041760;28;20034;-77
2022/05/15 10:15:50;;;;;;;1999.90;999.90;;;28.50;48.20;;;;;;5008980;28;20049;-76
2022/05/15 10:18:22;;;;;;;1999.90;999.90;;;28.60;49.00;;;;;;5007020;28;20022;-80
2022/05/15 10:20:48;;;;;;;1999.90;999.90;;;28.70;49.10;;;;;;4973902;28;20048;-80
2022/05/15 10:23:17;;;;;;;1999.90;999.90;;;28.70;48.50;;;;;;5008764;28;20041;-80
2022/05/15 10:25:59;;;;;;;1999.90;999.90;;;28.60;48.30;;;;;;5005996;28;20033;-82
2022/05/15 10:29:10;;;;;;;1999.90;999.90;;;28.80;48.30;;;;;;4993094;28;20368;-79
2022/05/15 10:31:37;;;;;;;;;;;29.00;47.10;;;;;;5007118;28;20153;-79
2022/05/15 10:34:10;;;;;;;1999.90;999.90;;;29.20;47.10;;;;;;4993158;28;19916;-80
2022/05/15 10:36:57;;;;;;;1999.90;999.90;;;29.50;46.50;;;;;;4993529;28;20042;-80
2022/05/15 10:39:36;;;;;;;1999.90;999.90;;;29.50;46.10;;;;;;5009999;28;20034;-79
2022/05/15 10:42:28;;;;;;;1999.90;999.90;;;29.30;45.40;;;;;;4994026;28;20044;-80
2022/05/15 10:45:18;;;;;;;1999.90;999.90;;;29.20;46.90;;;;;;4991798;28;20046;-80
2022/05/15 10:48:05;;;;;;;1999.90;999.90;;;29.50;46.10;;;;;;5004863;28;20038;-80
2022/05/15 10:51:03;;;;;;;1999.90;999.90;;;29.50;46.70;;;;;;4994492;28;20033;-80
2022/05/15 11:00:06;;;;;;;1999.90;999.90;;;29.90;46.20;;;;;;5022064;28;20507;-80
2022/05/15 11:02:53;;;;;;;1999.90;999.90;;;30.30;45.40;;;;;;5008277;28;20551;-81
2022/05/15 11:05:26;;;;;;;1999.90;999.90;;;30.40;44.20;;;;;;5025896;28;20364;-80
2022/05/15 11:08:08;;;;;;;1999.90;999.90;;;30.50;43.90;;;;;;5010355;28;20033;-80
2022/05/15 11:11:09;;;;;;;1999.90;999.90;;;30.60;43.60;;;;;;5008472;28;20293;-80
2022/05/15 11:13:46;;;;;;;1999.90;999.90;;;30.40;44.00;;;;;;5008222;28;20159;-80
2022/05/15 11:16:30;;;;;;;1999.90;999.90;;;30.00;44.70;;;;;;4984861;28;20516;-80
2022/05/15 11:19:05;;;;;;;1999.90;999.90;;;30.10;44.80;;;;;;4990976;28;20034;-80
2022/05/15 11:22:01;;;;;;;1999.90;999.90;;;30.40;44.70;;;;;;4988912;28;20043;-80
2022/05/15 11:24:56;;;;;;;1999.90;999.90;;;30.70;44.00;;;;;;4973538;28;20110;-81
2022/05/15 11:27:39;;;;;;;1999.90;999.90;;;30.90;43.10;;;;;;4987118;28;20046;-80
2022/05/15 11:30:26;;;;;;;1999.90;999.90;;;31.00;42.70;;;;;;4973504;28;20042;-80
2022/05/15 11:32:52;;;;;;;1999.90;999.90;;;30.70;43.40;;;;;;4990865;28;20038;-80
2022/05/15 11:35:18;;;;;;;1999.90;999.90;;;30.70;43.10;;;;;;5009632;28;20044;-80
2022/05/15 11:38:07;;;;;;;1999.90;999.90;;;30.70;43.10;;;;;;5009601;28;20056;-80
2022/05/15 11:40:35;;;;;;;1999.90;999.90;;;30.70;43.70;;;;;;4996853;28;20507;-80
2022/05/15 11:43:33;;;;;;;1999.90;999.90;;;30.50;43.80;;;;;;5008764;28;20430;-80
2022/05/15 11:46:16;;;;;;;1999.90;999.90;;;30.30;44.60;;;;;;5009363;28;20033;-80
2022/05/15 11:48:43;;;;;;;1999.90;999.90;;;30.50;44.70;;;;;;5030260;28;20041;-80
2022/05/15 11:51:14;;;;;;;1999.90;999.90;;;30.70;44.70;;;;;;5028413;28;20021;-80
2022/05/15 11:53:48;;;;;;;1999.90;999.90;;;30.90;44.00;;;;;;5027134;28;20502;-80
2022/05/15 11:56:31;;;;;;;1999.90;999.90;;;31.10;44.40;;;;;;5029575;28;20394;-80
2022/05/15 11:59:14;;;;;;;1999.90;999.90;;;31.20;43.50;;;;;;5029544;28;20026;-80
2022/05/15 12:01:41;;;;;;;1999.90;999.90;;;31.00;43.20;;;;;;5012849;28;20058;-80
2022/05/15 12:04:09;;;;;;;1999.90;999.90;;;31.20;42.80;;;;;;5009509;28;20034;-80
2022/05/15 12:07:09;;;;;;;1999.90;999.90;;;31.40;42.60;;;;;;5005530;28;20399;-80
2022/05/15 12:09:41;;;;;;;1999.90;999.90;;;31.70;41.20;;;;;;5009903;28;20034;-80
2022/05/15 12:12:23;;;;;;;1999.90;999.90;;;31.70;40.40;;;;;;5009037;28;20399;-80
2022/05/15 12:15:04;;;;;;;1999.90;999.90;;;31.70;40.70;;;;;;5007863;28;20033;-80
2022/05/15 12:17:32;;;;;;;1999.90;999.90;;;31.60;41.50;;;;;;5008806;28;20030;-80
2022/05/15 12:20:07;;;;;;;1999.90;999.90;;;31.50;42.20;;;;;;5006016;28;20033;-80
2022/05/15 12:22:37;;;;;;;1999.90;999.90;;;31.50;41.80;;;;;;5008063;28;20041;-80
2022/05/15 12:25:10;;;;;;;;;;;31.50;41.30;;;;;;5010163;28;20037;-80
2022/05/15 12:28:50;;;;;;;1999.90;999.90;;;31.60;41.30;;;;;;5024537;28;19932;-80
2022/05/15 12:30:46;;;;;;;1999.90;999.90;;;31.70;40.70;;;;;;5015223;28;20034;-80
2022/05/15 12:33:13;;;;;;;1999.90;999.90;;;31.80;40.90;;;;;;5045053;28;20063;-80
2022/05/15 12:35:41;;;;;;;1999.90;999.90;;;32.00;40.90;;;;;;5025991;28;20493;-80
2022/05/15 12:38:16;;;;;;;1999.90;999.90;;;32.10;40.40;;;;;;5026378;28;20030;-80
2022/05/15 12:40:57;;;;;;;1999.90;999.90;;;31.40;40.80;;;;;;5027293;28;20042;-81
2022/05/15 12:43:28;;;;;;;1999.90;999.90;;;31.20;41.60;;;;;;5017043;28;20041;-81
2022/05/15 12:45:54;;;;;;;1999.90;999.90;;;31.20;41.70;;;;;;5029551;28;20030;-81
2022/05/15 12:48:21;;;;;;;1999.90;999.90;;;31.20;41.70;;;;;;5029429;28;20026;-80
2022/05/15 12:50:52;;;;;;;1999.90;999.90;;;31.30;40.90;;;;;;5011873;28;20021;-81
2022/05/15 12:53:23;;;;;;;1999.90;999.90;;;31.40;40.20;;;;;;5027978;28;20056;-81
2022/05/15 12:55:50;;;;;;;1999.90;999.90;;;31.50;41.10;;;;;;5042643;28;20509;-81
2022/05/15 12:58:28;;;;;;;1999.90;999.90;;;31.60;41.40;;;;;;5011297;28;20041;-81
2022/05/15 13:00:54;;;;;;;1999.90;999.90;;;31.80;41.20;;;;;;5030768;28;20037;-82